Time;durP1;ratioP1;P1;durP2;ratioP2;P2;SDS_P1;SDS_P2;PMS_P1;PMS_P2;Temp;Humidity;BMP_temperature;BMP_pressure;BME280_temperature;BME280_humidity;BME280_pressure;Samples;Min_cycle;Max_cycle;Signal;HPM_P1;HPM_P2
2021/04/27 00:01:52;;;;;;;4.22;1.13;;;;;;;;;;5059870;28;20045;-53
2021/04/27 00:04:19;;;;;;;5.03;1.17;;;;;;;;;;5045865;28;20060;-53
2021/04/27 00:06:47;;;;;;;7.60;1.38;;;;;;;;;;5043043;28;20049;-55
2021/04/27 00:09:13;;;;;;;4.50;1.23;;;;;;;;;;5044131;28;20048;-55
2021/04/27 00:11:39;;;;;;;2.92;1.10;;;;;;;;;;5045322;28;20044;-54
2021/04/27 00:14:05;;;;;;;3.67;1.23;;;;;;;;;;5038378;28;20049;-52
2021/04/27 00:16:32;;;;;;;1.58;1.00;;;;;;;;;;5041389;28;20041;-54
2021/04/27 00:18:58;;;;;;;4.40;1.25;;;;;;;;;;5037732;28;20029;-52
2021/04/27 00:21:25;;;;;;;4.20;1.50;;;;;;;;;;5030471;28;20118;-53
2021/04/27 00:23:51;;;;;;;6.85;1.35;;;;;;;;;;5041622;28;20040;-53
2021/04/27 00:26:17;;;;;;;6.60;1.27;;;;;;;;;;5045661;28;20043;-55
2021/04/27 00:28:43;;;;;;;6.93;1.25;;;;;;;;;;5060164;28;20033;-57
2021/04/27 00:31:09;;;;;;;4.22;1.27;;;;;;;;;;5044749;28;20065;-53
2021/04/27 00:33:35;;;;;;;3.60;1.40;;;;;;;;;;5040714;28;20029;-56
2021/04/27 00:36:01;;;;;;;4.82;1.40;;;;;;;;;;5045307;28;20040;-51
2021/04/27 00:38:28;;;;;;;6.32;1.23;;;;;;;;;;5038388;28;20052;-55
2021/04/27 00:40:54;;;;;;;3.35;1.33;;;;;;;;;;5023002;28;20041;-53
2021/04/27 00:43:20;;;;;;;3.45;1.38;;;;;;;;;;5042034;28;20102;-55
2021/04/27 00:45:46;;;;;;;4.05;1.20;;;;;;;;;;5060777;28;20072;-54
2021/04/27 00:48:13;;;;;;;3.58;1.50;;;;;;;;;;5059657;28;20049;-54
2021/04/27 00:50:40;;;;;;;4.63;1.50;;;;;;;;;;5028087;28;20041;-53
2021/04/27 00:53:06;;;;;;;6.90;1.25;;;;;;;;;;5043312;28;20032;-54
2021/04/27 00:55:34;;;;;;;4.95;1.30;;;;;;;;;;5038660;28;20065;-54
2021/04/27 00:58:01;;;;;;;4.25;1.42;;;;;;;;;;5041617;28;20056;-52
2021/04/27 01:00:28;;;;;;;5.82;1.30;;;;;;;;;;5040325;28;20056;-54
2021/04/27 01:02:54;;;;;;;4.05;1.63;;;;;;;;;;5063354;28;20056;-54
2021/04/27 01:05:21;;;;;;;5.60;1.50;;;;;;;;;;5037055;28;20033;-51
2021/04/27 01:07:52;;;;;;;3.25;1.40;;;;;;;;;;5039826;28;20025;-52
2021/04/27 01:10:19;;;;;;;3.03;1.27;;;;;;;;;;5049553;28;20048;-57
2021/04/27 01:12:49;;;;;;;2.80;1.10;;;;;;;;;;5045652;28;20036;-51
2021/04/27 01:15:17;;;;;;;3.20;1.42;;;;;;;;;;5059550;28;20041;-53
2021/04/27 01:17:46;;;;;;;4.70;1.50;;;;;;;;;;5045684;28;20075;-52
2021/04/27 01:20:19;;;;;;;2.75;1.20;;;;;;;;;;5061556;28;20143;-51
2021/04/27 01:22:49;;;;;;;4.00;1.27;;;;;;;;;;5063238;28;20052;-51
2021/04/27 01:25:16;;;;;;;5.57;1.88;;;;;;;;;;5037444;28;20118;-55
2021/04/27 01:27:44;;;;;;;2.95;1.30;;;;;;;;;;5032393;28;20029;-52
2021/04/27 01:30:10;;;;;;;3.90;1.27;;;;;;;;;;5041149;28;20049;-51
2021/04/27 01:32:37;;;;;;;6.05;1.73;;;;;;;;;;5024721;28;20025;-52
2021/04/27 01:35:04;;;;;;;4.95;1.75;;;;;;;;;;5021881;28;20049;-55
2021/04/27 01:37:30;;;;;;;6.15;1.40;;;;;;;;;;5025446;28;20041;-53
2021/04/27 01:39:56;;;;;;;3.97;1.30;;;;;;;;;;5040728;28;20095;-53
2021/04/27 01:42:22;;;;;;;3.70;1.30;;;;;;;;;;5056152;28;20057;-53
2021/04/27 01:44:49;;;;;;;4.55;1.50;;;;;;;;;;5062015;28;20131;-53
2021/04/27 01:47:15;;;;;;;5.63;1.23;;;;;;;;;;5036026;28;20033;-54
2021/04/27 01:49:42;;;;;;;6.50;1.77;;;;;;;;;;5039751;28;20053;-53
2021/04/27 01:52:08;;;;;;;3.67;1.50;;;;;;;;;;5040585;28;20029;-52
2021/04/27 01:54:35;;;;;;;9.88;1.40;;;;;;;;;;5062758;28;20040;-55
2021/04/27 01:57:02;;;;;;;6.10;2.20;;;;;;;;;;5037135;28;20032;-50
2021/04/27 01:59:28;;;;;;;3.53;1.25;;;;;;;;;;5038387;28;20056;-55
2021/04/27 02:01:55;;;;;;;4.22;1.67;;;;;;;;;;5037058;28;20041;-53
2021/04/27 02:04:21;;;;;;;4.65;1.52;;;;;;;;;;5042406;28;20069;-52
2021/04/27 02:06:48;;;;;;;6.78;1.60;;;;;;;;;;5038512;28;20044;-50
2021/04/27 02:09:14;;;;;;;5.97;1.55;;;;;;;;;;5042507;28;20052;-51
2021/04/27 02:11:41;;;;;;;5.78;1.67;;;;;;;;;;5056877;28;20134;-52
2021/04/27 02:14:08;;;;;;;3.40;1.40;;;;;;;;;;5045198;28;20041;-57
2021/04/27 02:16:37;;;;;;;2.80;1.30;;;;;;;;;;5058819;28;20051;-57
2021/04/27 02:19:04;;;;;;;2.88;1.58;;;;;;;;;;5039013;28;20041;-54
2021/04/27 02:21:33;;;;;;;8.00;1.70;;;;;;;;;;5040077;28;20029;-53
2021/04/27 02:23:59;;;;;;;5.25;1.50;;;;;;;;;;5036908;28;20045;-51
2021/04/27 02:26:25;;;;;;;5.78;1.48;;;;;;;;;;5040712;28;20164;-54
2021/04/27 02:28:52;;;;;;;4.20;1.50;;;;;;;;;;5039845;28;20527;-51
2021/04/27 02:31:18;;;;;;;4.38;1.80;;;;;;;;;;5042405;28;20118;-54
2021/04/27 02:33:44;;;;;;;2.90;1.42;;;;;;;;;;5040986;28;20095;-49
2021/04/27 02:36:11;;;;;;;4.70;1.70;;;;;;;;;;5043816;28;20037;-51
2021/04/27 02:38:37;;;;;;;6.72;2.00;;;;;;;;;;5037970;28;20045;-51
2021/04/27 02:41:04;;;;;;;6.13;1.80;;;;;;;;;;5040168;28;20044;-52
2021/04/27 02:43:30;;;;;;;4.70;2.03;;;;;;;;;;5048557;28;20053;-51
2021/04/27 02:45:56;;;;;;;4.63;1.55;;;;;;;;;;5047822;28;20075;-50
2021/04/27 02:48:25;;;;;;;3.97;1.60;;;;;;;;;;5044058;28;20490;-50
2021/04/27 02:50:52;;;;;;;6.72;1.55;;;;;;;;;;5049324;28;20486;-54
2021/04/27 02:53:20;;;;;;;4.18;1.83;;;;;;;;;;5061938;28;20063;-51
2021/04/27 02:55:46;;;;;;;9.15;1.90;;;;;;;;;;5046370;28;20033;-51
2021/04/27 02:58:14;;;;;;;4.13;1.77;;;;;;;;;;5044873;28;20089;-53
2021/04/27 03:00:40;;;;;;;5.30;1.77;;;;;;;;;;5045285;28;20104;-55
2021/04/27 03:03:06;;;;;;;5.15;1.73;;;;;;;;;;5078073;28;20052;-51
2021/04/27 03:05:33;;;;;;;6.07;1.98;;;;;;;;;;5057370;28;20028;-54
2021/04/27 03:07:59;;;;;;;3.80;1.60;;;;;;;;;;5045971;28;20049;-52
2021/04/27 03:10:25;;;;;;;5.72;1.58;;;;;;;;;;5041729;28;20036;-51
2021/04/27 03:12:52;;;;;;;5.25;1.83;;;;;;;;;;5051614;28;20044;-49
2021/04/27 03:15:18;;;;;;;5.07;1.85;;;;;;;;;;5040769;28;20045;-53
2021/04/27 03:17:45;;;;;;;5.85;1.45;;;;;;;;;;5046754;28;20122;-54
2021/04/27 03:20:12;;;;;;;3.92;1.55;;;;;;;;;;5038261;28;20041;-55
2021/04/27 03:22:38;;;;;;;6.47;1.63;;;;;;;;;;5042754;28;20029;-50
2021/04/27 03:25:05;;;;;;;9.40;1.73;;;;;;;;;;5042940;28;20051;-55
2021/04/27 03:27:33;;;;;;;4.97;1.92;;;;;;;;;;5044772;28;20056;-53
2021/04/27 03:29:59;;;;;;;4.55;1.73;;;;;;;;;;5060589;28;20037;-51
2021/04/27 03:32:25;;;;;;;8.20;1.73;;;;;;;;;;5063266;28;20098;-52
2021/04/27 03:34:51;;;;;;;2.95;1.67;;;;;;;;;;5042889;28;20056;-52
2021/04/27 03:37:17;;;;;;;7.68;1.67;;;;;;;;;;5046467;28;20049;-49
2021/04/27 03:39:43;;;;;;;7.15;1.90;;;;;;;;;;5045525;28;20068;-50
2021/04/27 03:42:09;;;;;;;10.30;2.30;;;;;;;;;;5039693;28;20037;-52
2021/04/27 03:44:36;;;;;;;4.68;1.80;;;;;;;;;;5045458;28;20049;-50
2021/04/27 03:47:02;;;;;;;6.07;1.83;;;;;;;;;;5056046;28;20049;-53
2021/04/27 03:49:28;;;;;;;6.07;1.70;;;;;;;;;;5045909;28;20049;-52
2021/04/27 03:51:54;;;;;;;4.35;1.90;;;;;;;;;;5038816;28;20055;-51
2021/04/27 03:54:20;;;;;;;3.72;1.90;;;;;;;;;;5041926;28;20038;-52
2021/04/27 03:56:49;;;;;;;4.32;1.80;;;;;;;;;;5043004;28;20037;-55
2021/04/27 03:59:15;;;;;;;6.40;1.88;;;;;;;;;;5063136;28;20048;-50
2021/04/27 04:01:42;;;;;;;3.80;1.83;;;;;;;;;;5060579;28;20052;-53
2021/04/27 04:04:08;;;;;;;6.57;2.40;;;;;;;;;;5046456;28;20052;-56
2021/04/27 04:06:35;;;;;;;5.50;1.80;;;;;;;;;;5031277;28;20407;-53
2021/04/27 04:09:04;;;;;;;9.70;2.17;;;;;;;;;;5046107;28;20041;-52
2021/04/27 04:11:31;;;;;;;6.72;2.17;;;;;;;;;;5059978;28;20041;-52
2021/04/27 04:13:57;;;;;;;5.00;2.10;;;;;;;;;;5047796;28;20048;-59
2021/04/27 04:16:23;;;;;;;4.97;2.13;;;;;;;;;;5044073;28;20036;-56
2021/04/27 04:18:50;;;;;;;4.07;1.77;;;;;;;;;;5063607;28;20049;-56
2021/04/27 04:21:15;;;;;;;6.53;2.30;;;;;;;;;;5044327;28;20511;-52
2021/04/27 04:23:41;;;;;;;5.13;2.15;;;;;;;;;;5059085;28;20056;-52
2021/04/27 04:26:08;;;;;;;6.05;1.98;;;;;;;;;;5041817;28;20408;-52
2021/04/27 04:28:34;;;;;;;5.03;1.85;;;;;;;;;;5041045;28;20048;-54
2021/04/27 04:31:00;;;;;;;4.93;2.20;;;;;;;;;;5061964;28;20132;-57
2021/04/27 04:33:26;;;;;;;6.03;1.83;;;;;;;;;;5039034;28;20045;-55
2021/04/27 04:35:53;;;;;;;8.85;2.05;;;;;;;;;;5041441;28;20147;-56
2021/04/27 04:38:19;;;;;;;10.05;2.38;;;;;;;;;;5027586;28;20041;-53
2021/04/27 04:40:45;;;;;;;8.13;1.88;;;;;;;;;;5040527;28;20440;-55
2021/04/27 04:43:11;;;;;;;7.30;2.40;;;;;;;;;;5041032;28;20043;-53
2021/04/27 04:45:37;;;;;;;10.45;2.00;;;;;;;;;;5044823;28;20039;-55
2021/04/27 04:48:04;;;;;;;7.10;2.15;;;;;;;;;;5051861;28;20072;-52
2021/04/27 04:50:30;;;;;;;6.07;1.90;;;;;;;;;;5041096;28;20061;-53
2021/04/27 04:52:56;;;;;;;4.35;2.15;;;;;;;;;;5042601;28;20122;-54
2021/04/27 04:55:22;;;;;;;8.82;2.28;;;;;;;;;;5043964;28;20052;-54
2021/04/27 04:57:49;;;;;;;4.47;2.05;;;;;;;;;;5063287;28;20037;-51
2021/04/27 05:00:17;;;;;;;6.85;2.10;;;;;;;;;;5042015;28;20137;-54
2021/04/27 05:02:43;;;;;;;6.93;2.17;;;;;;;;;;5043549;28;20126;-53
2021/04/27 05:05:10;;;;;;;7.45;2.20;;;;;;;;;;5041838;28;20122;-52
2021/04/27 05:07:42;;;;;;;7.40;2.00;;;;;;;;;;5059741;28;20515;-53
2021/04/27 05:10:10;;;;;;;5.53;2.08;;;;;;;;;;5040262;28;20084;-54
2021/04/27 05:12:36;;;;;;;6.03;1.98;;;;;;;;;;5045907;28;20045;-53
2021/04/27 05:15:02;;;;;;;5.03;1.92;;;;;;;;;;5015273;28;20052;-55
2021/04/27 05:17:29;;;;;;;6.38;1.95;;;;;;;;;;5024347;28;20045;-49
2021/04/27 05:19:55;;;;;;;8.48;2.08;;;;;;;;;;5028689;28;20110;-53
2021/04/27 05:22:21;;;;;;;6.35;2.13;;;;;;;;;;5040948;28;20041;-53
2021/04/27 05:24:47;;;;;;;5.30;2.05;;;;;;;;;;5039888;28;20052;-52
2021/04/27 05:27:16;;;;;;;4.35;1.85;;;;;;;;;;5028376;28;20033;-50
2021/04/27 05:29:42;;;;;;;5.53;2.17;;;;;;;;;;5037588;28;20041;-53
2021/04/27 05:32:08;;;;;;;4.68;1.85;;;;;;;;;;5038219;28;20122;-49
2021/04/27 05:34:34;;;;;;;4.55;2.13;;;;;;;;;;5039781;28;20048;-51
2021/04/27 05:37:01;;;;;;;5.20;2.22;;;;;;;;;;5043422;28;20044;-53
2021/04/27 05:39:27;;;;;;;9.48;2.25;;;;;;;;;;5061917;28;20041;-53
2021/04/27 05:41:53;;;;;;;5.53;1.90;;;;;;;;;;5039758;28;20111;-50
2021/04/27 05:44:20;;;;;;;13.18;2.28;;;;;;;;;;5043164;28;20049;-51
2021/04/27 05:46:46;;;;;;;5.75;2.40;;;;;;;;;;5040708;28;20029;-52
2021/04/27 05:49:12;;;;;;;6.10;2.20;;;;;;;;;;5044044;28;20053;-53
2021/04/27 05:51:38;;;;;;;7.97;2.35;;;;;;;;;;5036295;28;20051;-52
2021/04/27 05:54:04;;;;;;;7.45;2.50;;;;;;;;;;5032326;28;20048;-55
2021/04/27 05:56:30;;;;;;;7.32;2.65;;;;;;;;;;5040063;28;20055;-53
2021/04/27 05:58:56;;;;;;;4.93;2.30;;;;;;;;;;5043003;28;20189;-48
2021/04/27 06:01:23;;;;;;;4.60;2.13;;;;;;;;;;5040229;28;20048;-52
2021/04/27 06:03:49;;;;;;;7.50;2.58;;;;;;;;;;5038753;28;20037;-54
2021/04/27 06:06:15;;;;;;;5.97;2.33;;;;;;;;;;5035094;28;20056;-53
2021/04/27 06:08:41;;;;;;;5.72;2.15;;;;;;;;;;5040845;28;20041;-56
2021/04/27 06:11:07;;;;;;;7.38;2.03;;;;;;;;;;5037318;28;20069;-53
2021/04/27 06:13:33;;;;;;;5.93;2.67;;;;;;;;;;5037506;28;20030;-52
2021/04/27 06:15:59;;;;;;;8.85;3.05;;;;;;;;;;5036563;28;20040;-53
2021/04/27 06:18:30;;;;;;;8.90;2.92;;;;;;;;;;5019288;28;20030;-52
2021/04/27 06:20:57;;;;;;;5.88;2.22;;;;;;;;;;5051153;28;20049;-53
2021/04/27 06:23:23;;;;;;;10.55;2.38;;;;;;;;;;5036913;28;20082;-54
2021/04/27 06:25:49;;;;;;;6.07;2.50;;;;;;;;;;5037120;28;20052;-53
2021/04/27 06:28:15;;;;;;;6.88;2.10;;;;;;;;;;5028990;28;20195;-54
2021/04/27 06:30:42;;;;;;;5.93;2.42;;;;;;;;;;5037219;28;20029;-51
2021/04/27 06:33:08;;;;;;;8.98;3.28;;;;;;;;;;5034167;28;20053;-52
2021/04/27 06:35:35;;;;;;;4.15;1.92;;;;;;;;;;5039605;28;20061;-54
2021/04/27 06:38:01;;;;;;;5.47;2.20;;;;;;;;;;5035588;28;20096;-52
2021/04/27 06:40:28;;;;;;;6.30;2.60;;;;;;;;;;5038732;28;20048;-56
2021/04/27 06:42:54;;;;;;;6.72;2.35;;;;;;;;;;5032941;28;20069;-56
2021/04/27 06:45:20;;;;;;;8.27;2.40;;;;;;;;;;5038558;28;20099;-56
2021/04/27 06:47:46;;;;;;;9.30;2.35;;;;;;;;;;5033443;28;20049;-51
2021/04/27 06:50:13;;;;;;;3.95;1.92;;;;;;;;;;5037017;28;20056;-55
2021/04/27 06:52:40;;;;;;;6.38;2.47;;;;;;;;;;5034831;28;20163;-54
2021/04/27 06:55:09;;;;;;;7.60;2.28;;;;;;;;;;5039946;28;20044;-56
2021/04/27 06:57:36;;;;;;;7.68;2.50;;;;;;;;;;5036397;28;20037;-55
2021/04/27 07:00:03;;;;;;;8.32;2.53;;;;;;;;;;5022772;28;20087;-51
2021/04/27 07:02:29;;;;;;;5.82;2.13;;;;;;;;;;5022881;28;20049;-53
2021/04/27 07:04:55;;;;;;;6.88;2.00;;;;;;;;;;5034602;28;20057;-50
2021/04/27 07:07:21;;;;;;;5.88;2.35;;;;;;;;;;5037037;28;20103;-52
2021/04/27 07:09:51;;;;;;;5.53;2.38;;;;;;;;;;5048810;28;20041;-57
2021/04/27 07:12:17;;;;;;;6.40;2.40;;;;;;;;;;5032809;28;20046;-51
2021/04/27 07:14:43;;;;;;;4.63;2.08;;;;;;;;;;5019548;28;20056;-51
2021/04/27 07:17:09;;;;;;;5.72;2.35;;;;;;;;;;5023029;28;20041;-52
2021/04/27 07:19:35;;;;;;;8.23;2.30;;;;;;;;;;5019090;28;20064;-52
2021/04/27 07:22:01;;;;;;;8.52;2.45;;;;;;;;;;5037822;28;20060;-51
2021/04/27 07:24:27;;;;;;;5.50;2.33;;;;;;;;;;5023911;28;20049;-57
2021/04/27 07:26:54;;;;;;;7.32;2.30;;;;;;;;;;5038877;28;20111;-49
2021/04/27 07:29:20;;;;;;;5.60;2.15;;;;;;;;;;5034378;28;20128;-54
2021/04/27 07:31:46;;;;;;;4.32;1.92;;;;;;;;;;5042597;28;20053;-52
2021/04/27 07:34:12;;;;;;;7.35;1.90;;;;;;;;;;5038690;28;20487;-50
2021/04/27 07:36:39;;;;;;;6.03;2.45;;;;;;;;;;5042302;28;20055;-49
2021/04/27 07:39:06;;;;;;;5.50;2.15;;;;;;;;;;5041619;28;20064;-55
2021/04/27 07:41:32;;;;;;;5.80;2.35;;;;;;;;;;5020934;28;20061;-50
2021/04/27 07:43:59;;;;;;;3.55;1.92;;;;;;;;;;5015832;28;20041;-52
2021/04/27 07:46:25;;;;;;;6.05;2.60;;;;;;;;;;5021783;28;20049;-56
2021/04/27 07:48:51;;;;;;;6.80;2.20;;;;;;;;;;5025095;28;20073;-54
2021/04/27 07:51:17;;;;;;;8.50;2.50;;;;;;;;;;5022298;28;20308;-52
2021/04/27 07:53:43;;;;;;;4.30;1.40;;;;;;;;;;5023886;28;20033;-55
2021/04/27 07:56:09;;;;;;;4.65;2.00;;;;;;;;;;5038775;28;20037;-53
2021/04/27 07:58:38;;;;;;;6.90;2.22;;;;;;;;;;5041977;28;20056;-53
2021/04/27 08:01:05;;;;;;;6.63;2.53;;;;;;;;;;5044522;28;20057;-50
2021/04/27 08:03:31;;;;;;;5.95;2.15;;;;;;;;;;5043264;28;20057;-53
2021/04/27 08:05:57;;;;;;;5.30;2.28;;;;;;;;;;5040301;28;20037;-55
2021/04/27 08:08:23;;;;;;;8.38;2.88;;;;;;;;;;5045969;28;20041;-52
2021/04/27 08:10:49;;;;;;;5.80;2.35;;;;;;;;;;5040364;28;20041;-54
2021/04/27 08:13:15;;;;;;;4.53;2.03;;;;;;;;;;5061521;28;20048;-48
2021/04/27 08:15:42;;;;;;;3.92;1.95;;;;;;;;;;5042359;28;20052;-54
2021/04/27 08:18:09;;;;;;;5.90;2.28;;;;;;;;;;5043758;28;20188;-54
2021/04/27 08:20:36;;;;;;;9.00;2.35;;;;;;;;;;5061593;28;20033;-58
2021/04/27 08:23:02;;;;;;;4.70;2.03;;;;;;;;;;5039306;28;20091;-52
2021/04/27 08:25:28;;;;;;;7.18;2.38;;;;;;;;;;5031376;28;20072;-51
2021/04/27 08:27:54;;;;;;;4.43;2.20;;;;;;;;;;5041612;28;20334;-52
2021/04/27 08:30:21;;;;;;;8.32;2.22;;;;;;;;;;5061728;28;20045;-54
2021/04/27 08:32:47;;;;;;;6.53;2.40;;;;;;;;;;5041719;28;20037;-53
2021/04/27 08:35:14;;;;;;;6.28;2.20;;;;;;;;;;5045788;28;20072;-56
2021/04/27 08:37:41;;;;;;;7.22;2.20;;;;;;;;;;5039243;28;20037;-55
2021/04/27 08:40:08;;;;;;;7.32;2.50;;;;;;;;;;5043339;28;20037;-55
2021/04/27 08:42:35;;;;;;;8.40;2.33;;;;;;;;;;5037564;28;20049;-52
2021/04/27 08:45:01;;;;;;;6.80;2.35;;;;;;;;;;5045203;28;20044;-57
2021/04/27 08:47:28;;;;;;;7.28;2.33;;;;;;;;;;5038231;28;20041;-54
2021/04/27 08:49:54;;;;;;;3.88;2.08;;;;;;;;;;5040517;28;20056;-52
2021/04/27 08:52:21;;;;;;;11.48;2.58;;;;;;;;;;5041510;28;20041;-55
2021/04/27 08:54:47;;;;;;;7.53;2.28;;;;;;;;;;5063147;28;20149;-54
2021/04/27 08:57:14;;;;;;;4.28;2.20;;;;;;;;;;5043016;28;20040;-57
2021/04/27 08:59:40;;;;;;;8.68;2.42;;;;;;;;;;5039309;28;20053;-55
2021/04/27 09:02:07;;;;;;;7.07;2.60;;;;;;;;;;5024585;28;20049;-56
2021/04/27 09:04:41;;;;;;;8.15;2.17;;;;;;;;;;5037678;28;20044;-54
2021/04/27 09:07:08;;;;;;;3.72;1.88;;;;;;;;;;5044681;28;20049;-54
2021/04/27 09:09:36;;;;;;;4.68;2.05;;;;;;;;;;5037561;28;20052;-53
2021/04/27 09:12:02;;;;;;;7.57;1.77;;;;;;;;;;5040696;28;20061;-55
2021/04/27 09:14:28;;;;;;;8.25;2.63;;;;;;;;;;5036427;28;20146;-56
2021/04/27 09:17:01;;;;;;;7.57;2.70;;;;;;;;;;5040161;28;20052;-55
2021/04/27 09:19:28;;;;;;;4.40;2.00;;;;;;;;;;5039125;28;20045;-53
2021/04/27 09:22:00;;;;;;;5.70;2.20;;;;;;;;;;5043669;28;20021;-52
2021/04/27 09:24:26;;;;;;;4.60;2.17;;;;;;;;;;5038523;28;20048;-54
2021/04/27 09:26:54;;;;;;;11.63;2.63;;;;;;;;;;5061633;28;20044;-52
2021/04/27 09:29:28;;;;;;;5.07;2.20;;;;;;;;;;5039095;28;20060;-50
2021/04/27 09:31:54;;;;;;;7.38;2.20;;;;;;;;;;5043080;28;20099;-52
2021/04/27 09:34:21;;;;;;;4.95;2.17;;;;;;;;;;5041077;28;20100;-51
2021/04/27 09:36:48;;;;;;;5.10;1.92;;;;;;;;;;5045331;28;20044;-53
2021/04/27 09:39:14;;;;;;;7.57;2.17;;;;;;;;;;5041703;28;20064;-57
2021/04/27 09:41:40;;;;;;;5.38;2.22;;;;;;;;;;5044028;28;20080;-57
2021/04/27 09:44:24;;;;;;;7.28;2.67;;;;;;;;;;5042536;28;20036;-57
2021/04/27 09:47:05;;;;;;;9.93;2.33;;;;;;;;;;5034579;28;20041;-55
2021/04/27 09:49:31;;;;;;;7.28;2.50;;;;;;;;;;5037775;28;20056;-53
2021/04/27 09:51:57;;;;;;;7.28;2.60;;;;;;;;;;5061315;28;20055;-54
2021/04/27 09:54:23;;;;;;;5.40;2.15;;;;;;;;;;5033192;28;20041;-57
2021/04/27 09:56:50;;;;;;;7.55;2.25;;;;;;;;;;5036892;28;20073;-53
2021/04/27 09:59:20;;;;;;;4.38;2.20;;;;;;;;;;5042041;28;20041;-52
2021/04/27 10:01:47;;;;;;;5.10;2.30;;;;;;;;;;5033408;28;20041;-54
2021/04/27 10:04:13;;;;;;;4.43;2.30;;;;;;;;;;5040859;28;20052;-54
2021/04/27 10:06:41;;;;;;;7.30;2.20;;;;;;;;;;5035931;28;20127;-53
2021/04/27 10:09:08;;;;;;;5.93;2.20;;;;;;;;;;5042066;28;20025;-56
2021/04/27 10:11:34;;;;;;;4.63;2.28;;;;;;;;;;5041383;28;20047;-56
2021/04/27 10:14:02;;;;;;;5.05;2.10;;;;;;;;;;5045180;28;20037;-57
2021/04/27 10:16:32;;;;;;;3.60;1.63;;;;;;;;;;5040469;28;20033;-57
2021/04/27 10:18:58;;;;;;;9.23;1.48;;;;;;;;;;5042337;28;20081;-56
2021/04/27 10:21:24;;;;;;;5.97;1.95;;;;;;;;;;5036253;28;20085;-50
2021/04/27 10:23:51;;;;;;;4.93;2.00;;;;;;;;;;5039527;28;20056;-57
2021/04/27 10:26:20;;;;;;;7.32;1.88;;;;;;;;;;5052400;28;20069;-52
2021/04/27 10:28:56;;;;;;;6.32;1.95;;;;;;;;;;5043231;28;20035;-55
2021/04/27 10:31:22;;;;;;;5.43;2.10;;;;;;;;;;5039514;28;20110;-54
2021/04/27 10:33:58;;;;;;;4.35;1.80;;;;;;;;;;5043640;28;20041;-56
2021/04/27 10:36:26;;;;;;;6.03;1.88;;;;;;;;;;5038238;28;20037;-56
2021/04/27 10:38:55;;;;;;;5.10;1.63;;;;;;;;;;5044394;28;20073;-56
2021/04/27 10:41:25;;;;;;;4.85;1.63;;;;;;;;;;5040239;28;20053;-57
2021/04/27 10:43:55;;;;;;;5.80;1.77;;;;;;;;;;5040553;28;20060;-55
2021/04/27 10:46:51;;;;;;;3.60;1.52;;;;;;;;;;5059674;28;20029;-55
2021/04/27 10:49:20;;;;;;;2.63;1.70;;;;;;;;;;5021933;28;20051;-53
2021/04/27 10:51:47;;;;;;;4.80;2.03;;;;;;;;;;5037584;28;20041;-56
2021/04/27 10:54:14;;;;;;;5.22;2.30;;;;;;;;;;5038905;28;20045;-56
2021/04/27 10:56:42;;;;;;;3.47;1.85;;;;;;;;;;5040321;28;20061;-57
2021/04/27 10:59:09;;;;;;;3.88;1.73;;;;;;;;;;5054993;28;20081;-53
2021/04/27 11:01:37;;;;;;;13.75;2.28;;;;;;;;;;5060611;28;20041;-56
2021/04/27 11:04:03;;;;;;;5.45;1.95;;;;;;;;;;5037144;28;20049;-56
2021/04/27 11:06:31;;;;;;;5.53;1.80;;;;;;;;;;5043801;28;20144;-58
2021/04/27 11:08:57;;;;;;;5.10;1.85;;;;;;;;;;5029871;28;20041;-57
2021/04/27 11:11:24;;;;;;;4.88;2.17;;;;;;;;;;5045550;28;20041;-57
2021/04/27 11:13:52;;;;;;;7.30;2.08;;;;;;;;;;5023548;28;20041;-57
2021/04/27 11:16:27;;;;;;;3.83;2.00;;;;;;;;;;5026963;28;20098;-51
2021/04/27 11:19:08;;;;;;;3.95;2.05;;;;;;;;;;5027186;28;20171;-56
2021/04/27 11:21:35;;;;;;;11.10;2.15;;;;;;;;;;5042061;28;20116;-56
2021/04/27 11:24:05;;;;;;;4.68;1.92;;;;;;;;;;5034848;28;20049;-56
2021/04/27 11:26:53;;;;;;;5.13;2.20;;;;;;;;;;5042409;28;20056;-54
2021/04/27 11:29:20;;;;;;;4.18;2.03;;;;;;;;;;5032790;28;20040;-58
2021/04/27 11:32:16;;;;;;;5.63;1.90;;;;;;;;;;5025459;28;20159;-56
2021/04/27 11:35:06;;;;;;;7.57;1.75;;;;;;;;;;5020253;28;20057;-54
2021/04/27 11:37:34;;;;;;;4.80;1.83;;;;;;;;;;5025067;28;20119;-58
2021/04/27 11:40:12;;;;;;;6.45;2.10;;;;;;;;;;5021621;28;20114;-57
2021/04/27 11:42:38;;;;;;;5.72;2.15;;;;;;;;;;5026235;28;20048;-56
2021/04/27 11:45:06;;;;;;;6.93;2.17;;;;;;;;;;5023275;28;20062;-56
2021/04/27 11:47:34;;;;;;;6.55;2.10;;;;;;;;;;5027775;28;20046;-58
2021/04/27 11:50:01;;;;;;;8.80;3.15;;;;;;;;;;5026680;28;20100;-60
2021/04/27 11:52:45;;;;;;;3.17;1.58;;;;;;;;;;5043759;28;20057;-54
2021/04/27 11:55:14;;;;;;;4.43;2.13;;;;;;;;;;5029428;28;20048;-58
2021/04/27 11:57:45;;;;;;;7.07;2.45;;;;;;;;;;5044434;28;20115;-57
2021/04/27 12:00:12;;;;;;;6.60;2.53;;;;;;;;;;5040623;28;20089;-57
2021/04/27 12:02:38;;;;;;;4.75;2.33;;;;;;;;;;5044142;28;20097;-59
2021/04/27 12:05:08;;;;;;;6.00;2.40;;;;;;;;;;5030769;28;20084;-57
2021/04/27 12:07:34;;;;;;;8.05;2.47;;;;;;;;;;5044753;28;20048;-58
2021/04/27 12:10:01;;;;;;;7.38;1.60;;;;;;;;;;5037496;28;20119;-59
2021/04/27 12:12:28;;;;;;;6.05;2.42;;;;;;;;;;5041213;28;20179;-57
2021/04/27 12:14:55;;;;;;;5.38;2.13;;;;;;;;;;5043173;28;20066;-56
2021/04/27 12:17:26;;;;;;;8.77;2.47;;;;;;;;;;5022845;28;20062;-55
2021/04/27 12:20:22;;;;;;;7.03;2.63;;;;;;;;;;5025940;28;20041;-54
2021/04/27 12:22:50;;;;;;;5.13;2.28;;;;;;;;;;4943994;28;20043;-56
2021/04/27 12:25:21;;;;;;;4.43;2.07;;;;;;;;;;5010908;28;20033;-55
2021/04/27 12:27:48;;;;;;;4.00;1.90;;;;;;;;;;5021901;28;20048;-58
2021/04/27 12:30:17;;;;;;;4.55;2.35;;;;;;;;;;5024563;28;20088;-57
2021/04/27 12:32:47;;;;;;;9.35;2.50;;;;;;;;;;5035072;28;20041;-58
2021/04/27 12:35:20;;;;;;;4.70;2.10;;;;;;;;;;5042800;28;20048;-52
2021/04/27 12:37:55;;;;;;;5.25;2.25;;;;;;;;;;5024580;28;20037;-58
2021/04/27 12:40:23;;;;;;;4.90;2.10;;;;;;;;;;5043363;28;20064;-57
2021/04/27 12:42:49;;;;;;;11.60;2.40;;;;;;;;;;5021215;28;20124;-58
2021/04/27 12:45:16;;;;;;;8.23;2.47;;;;;;;;;;5024326;28;20042;-56
2021/04/27 12:47:44;;;;;;;10.50;2.05;;;;;;;;;;5021894;28;20118;-57
2021/04/27 12:50:11;;;;;;;7.85;2.42;;;;;;;;;;5043479;28;20045;-56
2021/04/27 12:52:40;;;;;;;6.93;2.20;;;;;;;;;;5022033;28;20103;-59
2021/04/27 12:55:07;;;;;;;5.32;2.13;;;;;;;;;;5025136;28;20046;-58
2021/04/27 12:57:35;;;;;;;9.05;2.60;;;;;;;;;;5016976;28;20042;-59
2021/04/27 13:00:03;;;;;;;5.27;2.30;;;;;;;;;;5022245;28;20045;-64
2021/04/27 13:02:29;;;;;;;;;;;;;;;;;;5006239;28;20039;-61
2021/04/27 13:04:56;;;;;;;7.25;3.05;;;;;;;;;;5061620;28;19921;-64
2021/04/27 13:07:24;;;;;;;4.45;2.33;;;;;;;;;;5038518;28;20053;-58
2021/04/27 13:09:50;;;;;;;7.00;3.47;;;;;;;;;;5040278;28;20045;-60
2021/04/27 13:12:17;;;;;;;10.60;2.95;;;;;;;;;;5039954;28;20033;-62
2021/04/27 13:14:46;;;;;;;4.38;2.63;;;;;;;;;;5024528;28;20122;-57
2021/04/27 13:17:21;;;;;;;12.70;2.80;;;;;;;;;;5033495;28;20037;-59
2021/04/27 13:19:48;;;;;;;6.85;2.08;;;;;;;;;;5039896;28;20038;-59
2021/04/27 13:22:15;;;;;;;6.18;2.70;;;;;;;;;;5042310;28;20052;-59
2021/04/27 13:24:42;;;;;;;9.88;2.13;;;;;;;;;;5041266;28;20037;-60
2021/04/27 13:27:10;;;;;;;4.97;2.50;;;;;;;;;;5041552;28;20037;-59
2021/04/27 13:29:37;;;;;;;6.63;2.60;;;;;;;;;;5027272;28;20219;-55
2021/04/27 13:32:20;;;;;;;11.45;2.60;;;;;;;;;;5025290;28;20134;-59
2021/04/27 13:34:46;;;;;;;6.32;2.30;;;;;;;;;;5030693;28;20048;-59
2021/04/27 13:37:12;;;;;;;6.35;2.67;;;;;;;;;;5041250;28;20120;-58
2021/04/27 13:39:38;;;;;;;6.97;3.10;;;;;;;;;;5037216;28;20037;-58
2021/04/27 13:42:05;;;;;;;11.30;2.60;;;;;;;;;;5041698;28;20037;-59
2021/04/27 13:44:31;;;;;;;9.60;2.42;;;;;;;;;;5024402;28;20057;-59
2021/04/27 13:46:57;;;;;;;5.95;2.60;;;;;;;;;;5040435;28;20037;-58
2021/04/27 13:49:24;;;;;;;4.22;2.10;;;;;;;;;;5028514;28;20047;-58
2021/04/27 13:51:50;;;;;;;5.53;2.05;;;;;;;;;;5022200;28;20061;-59
2021/04/27 13:54:18;;;;;;;8.32;2.60;;;;;;;;;;5036584;28;20033;-60
2021/04/27 13:56:44;;;;;;;4.40;2.13;;;;;;;;;;5040243;28;20045;-59
2021/04/27 13:59:10;;;;;;;8.63;2.15;;;;;;;;;;5036982;28;20056;-58
2021/04/27 14:01:37;;;;;;;5.07;2.53;;;;;;;;;;5035026;28;20038;-56
2021/04/27 14:04:03;;;;;;;5.38;2.33;;;;;;;;;;5034349;28;20057;-57
2021/04/27 14:06:30;;;;;;;5.93;2.28;;;;;;;;;;5037014;28;20093;-60
2021/04/27 14:08:56;;;;;;;4.38;2.50;;;;;;;;;;5037896;28;20052;-56
2021/04/27 14:11:22;;;;;;;3.85;2.10;;;;;;;;;;5034847;28;20053;-59
2021/04/27 14:13:48;;;;;;;5.55;1.95;;;;;;;;;;5038423;28;20052;-60
2021/04/27 14:16:14;;;;;;;11.30;2.35;;;;;;;;;;5036345;28;20041;-58
2021/04/27 14:18:40;;;;;;;6.13;1.92;;;;;;;;;;5038576;28;20037;-59
2021/04/27 14:21:06;;;;;;;5.50;2.10;;;;;;;;;;5032212;28;20064;-59
2021/04/27 14:23:33;;;;;;;6.50;2.17;;;;;;;;;;5039128;28;20060;-57
2021/04/27 14:26:00;;;;;;;5.10;2.45;;;;;;;;;;5032013;28;20111;-56
2021/04/27 14:28:26;;;;;;;7.28;1.88;;;;;;;;;;5035804;28;20296;-59
2021/04/27 14:30:52;;;;;;;7.43;2.17;;;;;;;;;;5029562;28;20053;-59
2021/04/27 14:33:18;;;;;;;5.90;2.25;;;;;;;;;;5036619;28;20044;-58
2021/04/27 14:35:44;;;;;;;7.65;2.90;;;;;;;;;;5032762;28;20061;-59
2021/04/27 14:38:11;;;;;;;14.15;2.30;;;;;;;;;;5038815;28;20030;-59
2021/04/27 14:40:38;;;;;;;4.00;2.20;;;;;;;;;;5041803;28;20125;-59
2021/04/27 14:43:05;;;;;;;7.82;2.80;;;;;;;;;;5033984;28;20040;-59
2021/04/27 14:45:31;;;;;;;3.58;1.80;;;;;;;;;;5039120;28;20033;-60